Time;durP1;ratioP1;P1;durP2;ratioP2;P2;SDS_P1;SDS_P2;PMS_P1;PMS_P2;Temp;Humidity;BMP_temperature;BMP_pressure;BME280_temperature;BME280_humidity;BME280_pressure;Samples;Min_cycle;Max_cycle;Signal;HPM_P1;HPM_P2
2021/05/12 00:01:56;;;;;;;17.63;3.75;;;15.30;83.00;;;;;;5085188;28;20111;-60
2021/05/12 00:04:22;;;;;;;21.90;3.58;;;15.30;83.10;;;;;;5085271;28;20437;-60
2021/05/12 00:06:47;;;;;;;21.17;3.15;;;15.30;83.10;;;;;;5081637;28;20098;-60
2021/05/12 00:09:13;;;;;;;21.08;3.10;;;15.30;83.10;;;;;;5084820;28;20032;-60
2021/05/12 00:11:39;;;;;;;18.00;3.35;;;15.20;83.10;;;;;;5065088;28;20054;-60
2021/05/12 00:14:04;;;;;;;16.48;3.10;;;15.20;82.90;;;;;;5080267;28;20047;-60
2021/05/12 00:16:30;;;;;;;15.38;3.25;;;15.20;83.10;;;;;;5066682;28;20046;-60
2021/05/12 00:18:55;;;;;;;16.00;3.67;;;15.20;83.10;;;;;;5080451;28;20491;-60
2021/05/12 00:21:29;;;;;;;14.52;2.60;;;15.20;83.00;;;;;;5082487;28;21007;-60
2021/05/12 00:23:59;;;;;;;11.27;2.80;;;15.20;83.10;;;;;;5080963;28;20081;-60
2021/05/12 00:26:27;;;;;;;13.30;3.10;;;15.20;83.00;;;;;;5083904;28;20024;-60
2021/05/12 00:28:53;;;;;;;17.35;2.97;;;15.10;83.00;;;;;;5082437;28;20028;-60
2021/05/12 00:31:18;;;;;;;11.75;2.63;;;15.10;83.00;;;;;;5087169;28;21306;-60
2021/05/12 00:33:44;;;;;;;12.23;2.55;;;15.10;83.00;;;;;;5089089;28;20530;-60
2021/05/12 00:36:09;;;;;;;11.35;2.45;;;15.10;83.10;;;;;;5084954;28;20472;-60
2021/05/12 00:38:35;;;;;;;11.15;2.40;;;15.10;83.70;;;;;;5087267;28;20532;-60
2021/05/12 00:41:02;;;;;;;7.10;1.90;;;15.10;83.00;;;;;;5087100;28;20224;-60
2021/05/12 00:43:28;;;;;;;10.40;2.78;;;15.10;83.00;;;;;;5084750;28;20081;-60
2021/05/12 00:45:53;;;;;;;7.53;2.38;;;15.10;83.00;;;;;;5087566;28;20106;-60
2021/05/12 00:48:19;;;;;;;15.57;3.22;;;15.10;83.00;;;;;;5088322;28;20448;-60
2021/05/12 00:50:44;;;;;;;7.03;2.78;;;15.00;82.90;;;;;;5087950;28;20040;-60
2021/05/12 00:53:10;;;;;;;10.25;2.92;;;15.00;82.90;;;;;;5086899;28;20118;-60
2021/05/12 00:55:35;;;;;;;9.60;2.95;;;15.00;83.00;;;;;;5087142;28;20063;-60
2021/05/12 00:58:01;;;;;;;10.98;2.67;;;15.00;83.00;;;;;;5085987;28;20032;-60
2021/05/12 01:00:28;;;;;;;8.48;2.78;;;15.00;83.00;;;;;;5085488;28;20032;-60
2021/05/12 01:02:54;;;;;;;7.38;2.38;;;15.00;83.00;;;;;;5068375;28;20392;-60
2021/05/12 01:05:58;;;;;;;7.72;2.35;;;15.00;82.90;;;;;;5084651;28;20073;-60
2021/05/12 01:08:24;;;;;;;7.80;2.30;;;14.90;82.90;;;;;;5085924;28;20391;-60
2021/05/12 01:10:49;;;;;;;9.25;2.13;;;14.90;82.90;;;;;;5087272;28;20024;-60
2021/05/12 01:13:15;;;;;;;6.03;2.13;;;14.90;82.90;;;;;;5084255;28;20412;-60
2021/05/12 01:15:41;;;;;;;7.43;1.80;;;14.90;82.70;;;;;;5085490;28;20044;-60
2021/05/12 01:18:14;;;;;;;9.63;2.28;;;14.90;82.70;;;;;;5079805;28;20087;-60
2021/05/12 01:20:58;;;;;;;6.82;2.28;;;14.80;82.70;;;;;;5085159;28;20024;-60
2021/05/12 01:23:26;;;;;;;6.75;1.48;;;14.80;82.70;;;;;;5087034;28;20030;-60
2021/05/12 01:25:53;;;;;;;5.88;2.10;;;14.80;82.70;;;;;;5085877;28;20016;-60
2021/05/12 01:28:18;;;;;;;5.10;1.88;;;14.90;82.80;;;;;;5068684;28;20035;-60
2021/05/12 01:31:04;;;;;;;8.80;2.60;;;14.80;83.40;;;;;;5081695;28;20070;-60
2021/05/12 01:33:29;;;;;;;3.33;1.55;;;14.80;82.70;;;;;;5085637;28;20020;-60
2021/05/12 01:35:55;;;;;;;4.35;1.60;;;14.80;82.70;;;;;;5086127;28;20046;-60
2021/05/12 01:38:21;;;;;;;8.52;1.55;;;14.70;82.70;;;;;;5083719;28;20387;-60
2021/05/12 01:40:47;;;;;;;3.58;1.27;;;14.70;82.80;;;;;;5082495;28;20043;-60
2021/05/12 01:43:13;;;;;;;3.50;1.52;;;14.70;82.80;;;;;;5086738;28;20047;-60
2021/05/12 01:45:39;;;;;;;4.68;1.75;;;14.70;82.80;;;;;;5082970;28;20024;-60
2021/05/12 01:48:09;;;;;;;9.43;1.73;;;14.70;82.80;;;;;;5086630;28;20024;-60
2021/05/12 01:50:35;;;;;;;7.00;1.55;;;14.70;82.70;;;;;;5084105;28;20488;-60
2021/05/12 01:53:00;;;;;;;7.88;1.70;;;14.60;82.70;;;;;;5085856;28;20055;-60
2021/05/12 01:55:26;;;;;;;9.35;2.10;;;14.60;82.70;;;;;;5084699;28;20109;-61
2021/05/12 01:57:51;;;;;;;4.70;1.63;;;14.60;82.70;;;;;;5084262;28;20028;-60
2021/05/12 02:00:21;;;;;;;3.78;1.30;;;14.60;82.70;;;;;;5083296;28;20027;-60
2021/05/12 02:02:46;;;;;;;3.63;1.23;;;14.60;82.70;;;;;;5085054;28;20028;-60
2021/05/12 02:05:12;;;;;;;2.53;1.23;;;14.60;82.70;;;;;;5084032;28;20383;-60
2021/05/12 02:07:37;;;;;;;4.88;1.50;;;14.50;82.70;;;;;;5082684;28;20028;-60
2021/05/12 02:10:04;;;;;;;4.97;1.30;;;14.50;82.70;;;;;;5066664;28;20040;-60
2021/05/12 02:12:29;;;;;;;2.72;1.20;;;14.50;82.60;;;;;;5083494;28;20051;-60
2021/05/12 02:14:55;;;;;;;3.53;1.40;;;14.50;82.60;;;;;;5083978;28;20028;-60
2021/05/12 02:17:20;;;;;;;5.95;1.05;;;14.50;82.60;;;;;;5084751;28;20032;-60
2021/05/12 02:19:47;;;;;;;5.07;1.38;;;14.50;82.50;;;;;;5085924;28;20072;-60
2021/05/12 02:22:13;;;;;;;4.10;1.40;;;14.50;82.50;;;;;;5084302;28;20393;-60
2021/05/12 02:24:38;;;;;;;4.20;1.40;;;14.50;82.50;;;;;;5084807;28;20024;-60
2021/05/12 02:27:04;;;;;;;5.53;1.23;;;14.50;82.50;;;;;;5087256;28;20425;-60
2021/05/12 02:29:29;;;;;;;4.00;1.45;;;14.50;82.50;;;;;;5086197;28;20039;-60
2021/05/12 02:31:55;;;;;;;3.08;1.20;;;14.50;82.50;;;;;;5082070;28;20490;-60
2021/05/12 02:34:20;;;;;;;2.85;1.23;;;14.40;82.40;;;;;;5084754;28;20067;-60
2021/05/12 02:36:46;;;;;;;2.72;1.42;;;14.40;82.40;;;;;;5084461;28;20066;-60
2021/05/12 02:39:11;;;;;;;6.50;1.60;;;14.40;82.40;;;;;;5086064;28;20082;-60
2021/05/12 02:41:37;;;;;;;3.67;1.52;;;14.40;82.30;;;;;;5084841;28;20067;-63
2021/05/12 02:44:03;;;;;;;6.70;1.45;;;14.40;82.30;;;;;;5084164;28;20124;-60
2021/05/12 02:46:28;;;;;;;3.58;1.38;;;14.40;82.30;;;;;;5084147;28;20507;-60
2021/05/12 02:48:54;;;;;;;3.25;1.15;;;14.40;82.20;;;;;;5084627;28;20047;-60
2021/05/12 02:51:19;;;;;;;5.57;1.52;;;14.40;82.20;;;;;;5084334;28;20032;-61
2021/05/12 02:53:45;;;;;;;3.20;1.30;;;14.30;82.10;;;;;;5082299;28;20071;-60
2021/05/12 02:56:10;;;;;;;2.55;1.15;;;14.30;82.00;;;;;;5084949;28;20031;-60
2021/05/12 02:58:36;;;;;;;2.95;1.30;;;14.30;82.00;;;;;;5084071;28;20056;-60
2021/05/12 03:01:01;;;;;;;3.63;1.20;;;14.30;82.10;;;;;;5082713;28;20036;-60
2021/05/12 03:03:27;;;;;;;3.95;1.25;;;14.30;82.10;;;;;;5084845;28;20266;-60
2021/05/12 03:05:52;;;;;;;2.50;1.27;;;14.30;82.10;;;;;;5083361;28;20372;-60
2021/05/12 03:08:18;;;;;;;2.00;1.20;;;14.20;82.00;;;;;;5081911;28;20387;-60
2021/05/12 03:10:43;;;;;;;1.25;0.90;;;14.20;81.90;;;;;;5083832;28;20039;-61
2021/05/12 03:13:09;;;;;;;2.70;1.40;;;14.20;82.00;;;;;;5081433;28;20372;-60
2021/05/12 03:15:35;;;;;;;5.63;1.70;;;14.20;81.90;;;;;;5082227;28;20469;-60
2021/05/12 03:18:00;;;;;;;2.42;1.20;;;14.20;82.00;;;;;;5084555;28;20044;-61
2021/05/12 03:20:26;;;;;;;4.40;1.23;;;14.20;81.90;;;;;;5084055;28;20032;-60
2021/05/12 03:22:52;;;;;;;3.22;1.35;;;14.20;81.80;;;;;;5077713;28;20020;-61
2021/05/12 03:25:18;;;;;;;1.70;1.20;;;14.20;81.80;;;;;;5082044;28;20069;-60
2021/05/12 03:27:43;;;;;;;6.10;1.55;;;14.20;81.70;;;;;;5063032;28;20050;-60
2021/05/12 03:30:13;;;;;;;1.90;1.20;;;14.10;81.60;;;;;;5079732;28;20491;-61
2021/05/12 03:32:39;;;;;;;1.70;1.15;;;14.10;81.60;;;;;;5081642;28;20031;-60
2021/05/12 03:35:05;;;;;;;1.83;1.10;;;14.10;81.60;;;;;;5082492;28;20371;-61
2021/05/12 03:37:31;;;;;;;1.58;1.17;;;14.10;81.60;;;;;;5081629;28;20066;-60
2021/05/12 03:39:56;;;;;;;1.75;0.90;;;14.10;81.50;;;;;;5079476;28;20032;-60
2021/05/12 03:42:21;;;;;;;2.92;1.17;;;14.10;81.50;;;;;;5082649;28;20032;-60
2021/05/12 03:44:47;;;;;;;2.63;1.20;;;14.10;81.50;;;;;;5080241;28;20020;-60
2021/05/12 03:47:13;;;;;;;3.53;1.10;;;14.10;81.50;;;;;;5084342;28;20056;-61
2021/05/12 03:49:38;;;;;;;2.47;1.20;;;14.10;81.40;;;;;;5083892;28;20056;-60
2021/05/12 03:52:04;;;;;;;2.70;1.10;;;14.00;82.00;;;;;;5082929;28;20071;-60
2021/05/12 03:54:29;;;;;;;2.22;1.10;;;14.00;81.40;;;;;;5081765;28;20536;-61
2021/05/12 03:56:55;;;;;;;3.15;1.20;;;14.00;81.30;;;;;;5083906;28;20114;-61
2021/05/12 03:59:21;;;;;;;1.33;0.68;;;14.00;81.40;;;;;;5083389;28;20111;-61
2021/05/12 04:01:46;;;;;;;5.07;1.10;;;14.00;81.30;;;;;;5085625;28;20020;-61
2021/05/12 04:04:14;;;;;;;90.18;10.68;;;14.00;81.40;;;;;;5069673;28;20394;-60
2021/05/12 04:06:41;;;;;;;89.00;7.75;;;13.90;81.30;;;;;;5087209;28;20036;-61
2021/05/12 04:09:07;;;;;;;49.55;5.97;;;14.00;81.40;;;;;;5087185;28;20032;-61
2021/05/12 04:11:32;;;;;;;54.85;6.00;;;13.90;81.40;;;;;;5088099;28;20035;-61
2021/05/12 04:13:58;;;;;;;31.20;4.15;;;13.90;81.40;;;;;;5085452;28;20036;-60
2021/05/12 04:16:24;;;;;;;63.45;5.38;;;13.90;81.40;;;;;;5087468;28;20078;-61
2021/05/12 04:18:49;;;;;;;36.88;6.60;;;13.90;81.40;;;;;;5083016;28;20040;-61
2021/05/12 04:21:15;;;;;;;69.57;8.35;;;13.90;81.40;;;;;;5067877;28;21032;-61
2021/05/12 04:23:41;;;;;;;61.75;6.88;;;13.90;81.40;;;;;;5086445;28;20106;-60
2021/05/12 04:26:06;;;;;;;65.05;7.88;;;13.90;81.40;;;;;;5088062;28;20460;-60
2021/05/12 04:28:32;;;;;;;52.47;7.03;;;13.90;81.30;;;;;;5087162;28;20369;-61
2021/05/12 04:30:57;;;;;;;62.63;7.70;;;13.90;81.30;;;;;;5086179;28;20043;-60
2021/05/12 04:33:23;;;;;;;89.55;8.00;;;13.90;81.30;;;;;;5085631;28;20271;-61
2021/05/12 04:35:48;;;;;;;93.63;7.65;;;13.90;81.30;;;;;;5085568;28;20089;-62
2021/05/12 04:38:14;;;;;;;64.80;7.07;;;13.90;81.20;;;;;;5084813;28;20066;-60
2021/05/12 04:40:39;;;;;;;115.20;10.15;;;13.90;81.20;;;;;;5084699;28;20449;-61
2021/05/12 04:43:05;;;;;;;282.30;23.38;;;13.80;81.10;;;;;;5088252;28;20028;-61
2021/05/12 04:45:30;;;;;;;219.20;18.95;;;13.90;81.20;;;;;;5083686;28;20028;-60
2021/05/12 04:47:56;;;;;;;353.42;26.45;;;13.90;81.10;;;;;;5085083;28;20150;-61
2021/05/12 04:50:29;;;;;;;389.95;29.98;;;13.90;81.20;;;;;;5087452;28;20034;-61
2021/05/12 04:52:55;;;;;;;571.30;47.35;;;13.90;81.40;;;;;;5085095;28;20028;-61
2021/05/12 04:55:21;;;;;;;647.92;57.50;;;13.90;81.40;;;;;;5069599;28;20043;-61
2021/05/12 04:57:46;;;;;;;486.20;41.83;;;13.80;81.30;;;;;;5081162;28;20047;-61
2021/05/12 05:00:13;;;;;;;337.42;29.08;;;13.90;81.50;;;;;;5080713;28;20090;-61
2021/05/12 05:02:40;;;;;;;370.33;29.92;;;13.90;81.40;;;;;;5083839;28;20589;-61
2021/05/12 05:05:08;;;;;;;348.02;28.15;;;13.80;81.40;;;;;;5085025;28;20604;-61
2021/05/12 05:07:33;;;;;;;289.13;23.88;;;13.80;81.30;;;;;;5085907;28;20023;-61
2021/05/12 05:10:02;;;;;;;294.90;24.40;;;13.90;81.30;;;;;;5083033;28;20036;-61
2021/05/12 05:12:28;;;;;;;250.10;22.52;;;13.90;81.40;;;;;;5082503;28;21108;-61
2021/05/12 05:14:54;;;;;;;243.50;22.52;;;13.80;81.30;;;;;;5084990;28;20020;-60
2021/05/12 05:17:19;;;;;;;282.35;23.83;;;13.90;81.40;;;;;;5086256;28;20024;-61
2021/05/12 05:19:45;;;;;;;235.18;21.70;;;13.90;81.30;;;;;;5082412;28;20052;-60
2021/05/12 05:22:11;;;;;;;237.32;21.02;;;13.90;81.40;;;;;;5084718;28;20039;-61
2021/05/12 05:24:38;;;;;;;222.70;20.30;;;13.90;81.30;;;;;;5083315;28;20036;-61
2021/05/12 05:27:04;;;;;;;263.27;23.02;;;13.90;81.20;;;;;;5085023;28;20025;-61
2021/05/12 05:29:30;;;;;;;197.13;18.45;;;13.90;81.30;;;;;;5085812;28;20016;-61
2021/05/12 05:31:55;;;;;;;268.45;24.05;;;13.80;81.30;;;;;;5083256;28;20063;-61
2021/05/12 05:34:21;;;;;;;213.95;21.00;;;13.80;81.30;;;;;;5085442;28;20506;-61
2021/05/12 05:36:46;;;;;;;172.52;17.80;;;13.90;81.50;;;;;;5085583;28;20059;-61
2021/05/12 05:39:12;;;;;;;182.73;17.63;;;13.80;81.60;;;;;;5083931;28;20126;-60
2021/05/12 05:41:37;;;;;;;178.85;19.13;;;13.80;81.70;;;;;;5084845;28;20034;-61
2021/05/12 05:44:03;;;;;;;159.18;15.05;;;13.80;81.70;;;;;;5086860;28;20035;-60
2021/05/12 05:46:28;;;;;;;126.88;14.70;;;13.80;81.60;;;;;;5085642;28;20388;-61
2021/05/12 05:48:54;;;;;;;141.98;14.38;;;13.80;81.70;;;;;;5083984;28;20047;-60
2021/05/12 05:51:21;;;;;;;160.52;16.80;;;13.80;81.70;;;;;;5084194;28;20032;-61
2021/05/12 05:53:47;;;;;;;138.52;16.13;;;13.80;81.70;;;;;;5085168;28;20479;-61
2021/05/12 05:56:12;;;;;;;150.63;15.65;;;13.80;81.80;;;;;;5084776;28;20058;-61
2021/05/12 05:58:38;;;;;;;145.23;14.88;;;13.80;81.70;;;;;;5085116;28;20093;-61
2021/05/12 06:01:03;;;;;;;127.88;13.32;;;13.80;81.70;;;;;;5086025;28;20368;-61
2021/05/12 06:03:29;;;;;;;115.10;12.25;;;13.80;81.80;;;;;;5082033;28;20484;-61
2021/05/12 06:05:54;;;;;;;123.60;11.15;;;13.80;81.90;;;;;;5085405;28;20036;-61
2021/05/12 06:08:20;;;;;;;100.30;11.23;;;13.80;82.10;;;;;;5085181;28;20024;-61
2021/05/12 06:10:45;;;;;;;106.03;13.30;;;13.80;82.10;;;;;;5085693;28;20073;-61
2021/05/12 06:13:11;;;;;;;90.72;10.85;;;13.70;82.10;;;;;;5079283;28;20050;-61
2021/05/12 06:15:39;;;;;;;91.88;10.65;;;13.70;82.10;;;;;;5084454;28;20471;-61
2021/05/12 06:18:05;;;;;;;84.55;10.23;;;13.70;81.90;;;;;;5082431;28;20040;-61
2021/05/12 06:20:31;;;;;;;84.88;10.68;;;13.80;82.10;;;;;;5085455;28;20052;-61
2021/05/12 06:23:01;;;;;;;80.00;12.00;;;13.80;82.20;;;;;;5067268;28;20027;-61
2021/05/12 06:25:26;;;;;;;86.88;9.35;;;13.80;82.30;;;;;;5082514;28;20020;-61
2021/05/12 06:27:52;;;;;;;61.95;8.00;;;13.80;82.40;;;;;;5083197;28;20484;-61
2021/05/12 06:30:17;;;;;;;79.38;8.70;;;13.80;82.40;;;;;;5081546;28;20048;-61
2021/05/12 06:32:43;;;;;;;67.05;8.10;;;13.80;82.60;;;;;;5081674;28;20016;-60
2021/05/12 06:35:09;;;;;;;64.95;8.02;;;13.70;82.40;;;;;;5081463;28;20460;-60
2021/05/12 06:37:35;;;;;;;53.10;7.97;;;13.70;82.40;;;;;;5083122;28;20028;-61
2021/05/12 06:40:00;;;;;;;58.60;8.10;;;13.70;82.50;;;;;;5079981;28;20139;-61
2021/05/12 06:42:26;;;;;;;44.40;6.32;;;13.80;82.70;;;;;;5080842;28;20459;-61
2021/05/12 06:44:51;;;;;;;58.72;6.07;;;13.80;82.70;;;;;;5062571;28;20035;-61
2021/05/12 06:47:17;;;;;;;52.47;7.15;;;13.80;82.70;;;;;;5082629;28;20028;-61
2021/05/12 06:49:42;;;;;;;62.67;8.80;;;13.80;83.30;;;;;;5081016;28;20088;-61
2021/05/12 06:52:08;;;;;;;85.32;9.30;;;13.80;83.00;;;;;;5083011;28;20043;-61
2021/05/12 06:54:33;;;;;;;69.00;8.20;;;13.90;82.90;;;;;;5081303;28;20061;-60
2021/05/12 06:56:59;;;;;;;60.53;7.63;;;13.80;82.90;;;;;;5079249;28;20123;-61
2021/05/12 06:59:24;;;;;;;56.70;6.93;;;13.90;82.90;;;;;;5076095;28;20063;-61
2021/05/12 07:01:52;;;;;;;54.42;7.18;;;13.90;82.70;;;;;;5077774;28;20047;-61
2021/05/12 07:04:17;;;;;;;57.00;7.65;;;13.90;82.80;;;;;;5061271;28;20032;-61
2021/05/12 07:06:43;;;;;;;47.15;6.35;;;13.90;82.60;;;;;;5076585;28;20534;-61
2021/05/12 07:09:08;;;;;;;49.22;5.30;;;13.90;82.30;;;;;;5072639;28;20491;-60
2021/05/12 07:11:34;;;;;;;52.47;4.80;;;13.90;82.20;;;;;;5079405;28;20106;-61
2021/05/12 07:13:59;;;;;;;38.45;4.97;;;13.90;82.10;;;;;;5082192;28;20031;-61
2021/05/12 07:16:25;;;;;;;34.78;3.45;;;13.80;82.70;;;;;;5078705;28;20055;-61
2021/05/12 07:18:50;;;;;;;42.58;4.13;;;13.80;82.10;;;;;;5081796;28;20048;-61
2021/05/12 07:21:16;;;;;;;27.50;4.00;;;13.80;82.10;;;;;;5080491;28;20045;-61
2021/05/12 07:23:44;;;;;;;33.00;4.38;;;13.80;82.00;;;;;;5074611;28;20083;-61
2021/05/12 07:26:10;;;;;;;31.02;3.55;;;13.80;82.00;;;;;;5061402;28;20023;-61
2021/05/12 07:28:36;;;;;;;34.45;4.20;;;13.80;82.10;;;;;;5074415;28;20224;-61
2021/05/12 07:31:02;;;;;;;23.40;2.95;;;13.80;82.20;;;;;;5068483;28;20043;-61
2021/05/12 07:33:27;;;;;;;32.17;4.35;;;13.80;82.10;;;;;;5071456;28;20332;-60
2021/05/12 07:35:53;;;;;;;35.55;4.75;;;13.80;82.00;;;;;;5078185;28;20130;-61
2021/05/12 07:38:19;;;;;;;68.68;5.78;;;13.80;82.00;;;;;;5078779;28;20039;-61
2021/05/12 07:40:44;;;;;;;45.80;4.68;;;13.80;82.20;;;;;;5080618;28;20028;-60
2021/05/12 07:43:11;;;;;;;37.78;3.70;;;13.90;82.60;;;;;;5080040;28;20032;-61
2021/05/12 07:45:37;;;;;;;40.22;4.03;;;13.90;82.10;;;;;;5081732;28;20112;-60
2021/05/12 07:48:12;;;;;;;48.33;5.28;;;13.80;82.10;;;;;;5063143;28;20376;-61
2021/05/12 07:50:38;;;;;;;41.67;4.20;;;13.80;82.10;;;;;;5079883;28;20033;-60
2021/05/12 07:53:06;;;;;;;41.67;4.18;;;13.80;82.20;;;;;;5076455;28;20430;-61
2021/05/12 07:55:31;;;;;;;53.72;5.70;;;13.80;82.30;;;;;;5073395;28;20050;-61
2021/05/12 07:57:57;;;;;;;56.67;5.80;;;13.90;82.20;;;;;;5082437;28;20032;-61
2021/05/12 08:00:23;;;;;;;62.28;6.57;;;13.90;82.10;;;;;;5081385;28;20262;-61
2021/05/12 08:02:48;;;;;;;93.82;8.25;;;13.90;82.00;;;;;;5080747;28;20117;-61
2021/05/12 08:05:14;;;;;;;74.95;6.97;;;13.90;82.20;;;;;;5078749;28;20027;-60
2021/05/12 08:07:40;;;;;;;64.35;5.38;;;13.90;82.20;;;;;;5080429;28;20038;-60
2021/05/12 08:10:06;;;;;;;67.18;7.13;;;13.90;82.30;;;;;;5080273;28;20138;-61
2021/05/12 08:12:31;;;;;;;75.28;7.07;;;13.90;82.40;;;;;;5081480;28;20102;-61
2021/05/12 08:14:57;;;;;;;59.28;8.10;;;13.90;82.40;;;;;;5079666;28;20110;-61
2021/05/12 08:17:22;;;;;;;62.38;5.90;;;13.90;82.40;;;;;;5061382;28;20031;-60
2021/05/12 08:19:48;;;;;;;71.20;5.30;;;14.00;82.50;;;;;;5082390;28;20043;-61
2021/05/12 08:22:13;;;;;;;52.10;6.40;;;14.00;82.40;;;;;;5085615;28;20034;-60
2021/05/12 08:24:39;;;;;;;81.85;7.28;;;14.00;82.30;;;;;;5081400;28;20038;-61
2021/05/12 08:27:05;;;;;;;75.25;5.55;;;14.00;82.20;;;;;;5080628;28;20513;-61
2021/05/12 08:29:31;;;;;;;60.72;6.05;;;14.10;82.80;;;;;;5046830;28;20047;-61
2021/05/12 08:31:57;;;;;;;72.93;7.55;;;14.10;82.30;;;;;;5079486;28;20494;-61
2021/05/12 08:34:23;;;;;;;174.80;15.45;;;14.00;82.20;;;;;;5046846;28;20091;-61
2021/05/12 08:36:49;;;;;;;65.45;7.28;;;14.10;82.40;;;;;;5080255;28;20842;-60
2021/05/12 08:39:14;;;;;;;319.52;26.38;;;14.10;82.20;;;;;;5083542;28;20027;-61
2021/05/12 08:41:41;;;;;;;299.85;25.15;;;13.90;82.10;;;;;;5063734;28;20376;-61
2021/05/12 08:44:07;;;;;;;82.82;9.73;;;14.20;81.90;;;;;;5062726;28;20032;-61
2021/05/12 08:46:34;;;;;;;97.07;8.70;;;14.20;81.70;;;;;;5082989;28;20089;-60
2021/05/12 08:48:59;;;;;;;94.85;8.85;;;14.20;81.40;;;;;;5064421;28;20111;-61
2021/05/12 08:51:26;;;;;;;84.13;7.22;;;14.20;81.40;;;;;;5064569;28;20443;-61
2021/05/12 08:53:55;;;;;;;62.85;6.93;;;14.30;81.30;;;;;;5078509;28;20017;-61
2021/05/12 08:56:21;;;;;;;59.17;7.18;;;14.30;81.10;;;;;;5076895;28;20090;-61
2021/05/12 08:58:46;;;;;;;48.30;6.60;;;14.30;80.70;;;;;;5083893;28;20039;-61
2021/05/12 09:01:13;;;;;;;58.97;6.60;;;14.40;80.60;;;;;;5082152;28;20377;-61
2021/05/12 09:03:39;;;;;;;57.63;7.30;;;14.40;80.40;;;;;;5064857;28;20030;-61
2021/05/12 09:06:04;;;;;;;44.53;6.35;;;14.40;80.40;;;;;;5081446;28;20550;-61
2021/05/12 09:08:31;;;;;;;63.55;6.78;;;14.40;80.50;;;;;;5081121;28;20055;-61
2021/05/12 09:10:56;;;;;;;62.28;6.85;;;14.50;80.40;;;;;;5056293;28;20543;-61
2021/05/12 09:13:39;;;;;;;87.95;8.27;;;14.40;80.20;;;;;;5078386;28;20036;-61
2021/05/12 09:16:20;;;;;;;65.60;7.03;;;14.50;80.10;;;;;;5066477;28;20036;-61
2021/05/12 09:18:46;;;;;;;54.60;6.32;;;14.50;80.00;;;;;;5080554;28;20524;-61
2021/05/12 09:21:12;;;;;;;69.45;8.02;;;14.50;79.90;;;;;;5078991;28;20044;-61
2021/05/12 09:23:38;;;;;;;42.58;6.55;;;14.60;79.70;;;;;;5079914;28;20580;-61
2021/05/12 09:26:09;;;;;;;61.30;6.68;;;14.60;79.30;;;;;;5081175;28;20047;-61
2021/05/12 09:28:35;;;;;;;77.35;7.78;;;14.60;79.20;;;;;;5078568;28;20111;-61
2021/05/12 09:31:11;;;;;;;92.47;9.40;;;14.60;79.20;;;;;;5080058;28;20119;-61
2021/05/12 09:33:42;;;;;;;78.82;7.15;;;14.70;79.20;;;;;;5081052;28;20032;-61
2021/05/12 09:36:08;;;;;;;39.90;5.03;;;14.60;79.00;;;;;;5079848;28;20040;-60
2021/05/12 09:38:34;;;;;;;37.60;5.43;;;14.70;78.90;;;;;;5080766;28;20094;-62
2021/05/12 09:41:09;;;;;;;83.78;6.60;;;14.80;78.80;;;;;;5081372;28;20028;-61
2021/05/12 09:43:36;;;;;;;55.55;6.50;;;14.70;78.60;;;;;;5077020;28;20034;-60
2021/05/12 09:46:21;;;;;;;57.78;6.65;;;14.70;78.40;;;;;;5079494;28;20034;-62
2021/05/12 09:49:05;;;;;;;75.37;7.63;;;14.70;78.40;;;;;;5081619;28;20039;-61
2021/05/12 09:51:35;;;;;;;38.72;4.80;;;14.70;78.70;;;;;;5077375;28;20032;-61
2021/05/12 09:54:12;;;;;;;28.70;3.50;;;14.80;79.00;;;;;;5079353;28;20028;-60
2021/05/12 09:57:00;;;;;;;29.58;5.22;;;14.80;78.60;;;;;;5079343;28;20054;-62
2021/05/12 09:59:32;;;;;;;51.42;5.40;;;14.80;78.60;;;;;;5076406;28;20038;-60
2021/05/12 10:02:03;;;;;;;42.95;4.07;;;14.90;78.10;;;;;;5079006;28;20028;-61
2021/05/12 10:06:58;;;;;;;49.15;4.70;;;14.90;77.40;;;;;;5079535;28;20031;-60
2021/05/12 10:09:25;;;;;;;50.05;5.03;;;14.90;76.80;;;;;;5078651;28;20562;-61
2021/05/12 10:12:07;;;;;;;29.73;3.35;;;14.90;76.50;;;;;;5072909;28;20031;-61
2021/05/12 10:14:34;;;;;;;19.33;3.85;;;15.00;76.70;;;;;;5074386;28;20063;-60
2021/05/12 10:17:00;;;;;;;29.45;3.53;;;14.90;76.50;;;;;;5080479;28;20698;-60
2021/05/12 10:19:26;;;;;;;32.20;4.05;;;15.00;76.40;;;;;;5079170;28;20559;-60
2021/05/12 10:21:52;;;;;;;23.23;3.25;;;14.90;75.90;;;;;;5080920;28;20095;-61
2021/05/12 10:24:17;;;;;;;38.50;3.83;;;14.90;76.40;;;;;;5062635;28;20165;-61
2021/05/12 10:26:43;;;;;;;28.05;3.75;;;15.00;76.10;;;;;;5077293;28;20031;-61
2021/05/12 10:29:11;;;;;;;42.22;4.25;;;15.00;76.40;;;;;;5078327;28;20036;-62
2021/05/12 10:31:36;;;;;;;42.33;3.90;;;15.00;77.00;;;;;;5058561;28;20035;-60
2021/05/12 10:34:02;;;;;;;43.75;4.68;;;15.00;77.00;;;;;;5058079;28;20032;-61
2021/05/12 10:36:28;;;;;;;37.58;3.90;;;15.00;77.00;;;;;;5079752;28;20562;-61
2021/05/12 10:38:55;;;;;;;34.03;4.35;;;15.00;76.90;;;;;;5079877;28;20036;-61
2021/05/12 10:41:40;;;;;;;35.17;4.80;;;15.10;76.30;;;;;;5075458;28;20036;-63
2021/05/12 10:47:08;;;;;;;29.27;3.50;;;15.10;75.70;;;;;;5081033;28;20436;-62
2021/05/12 10:49:33;;;;;;;35.03;4.20;;;15.10;75.40;;;;;;5081327;28;20044;-62
2021/05/12 10:52:08;;;;;;;28.30;3.92;;;15.20;75.50;;;;;;5075185;28;20040;-61
2021/05/12 10:54:38;;;;;;;23.45;3.25;;;15.20;75.30;;;;;;5078650;28;20055;-62
2021/05/12 10:57:03;;;;;;;29.80;3.28;;;15.20;74.80;;;;;;5079109;28;20054;-62
2021/05/12 10:59:29;;;;;;;23.30;2.80;;;15.20;74.60;;;;;;5064930;28;21356;-61
2021/05/12 11:01:55;;;;;;;24.58;4.15;;;15.10;74.50;;;;;;5063135;28;20105;-61
2021/05/12 11:04:22;;;;;;;36.90;3.58;;;15.20;74.40;;;;;;5076743;28;20115;-60
2021/05/12 11:06:51;;;;;;;56.08;5.47;;;15.20;74.50;;;;;;5077665;28;20077;-61
2021/05/12 11:09:17;;;;;;;10.63;2.83;;;15.20;74.70;;;;;;5079566;28;20119;-61
2021/05/12 11:11:49;;;;;;;28.08;3.28;;;15.10;74.70;;;;;;5079269;28;20023;-63
2021/05/12 11:14:31;;;;;;;13.40;2.47;;;15.20;74.80;;;;;;5078245;28;20016;-61
2021/05/12 11:17:00;;;;;;;13.82;2.70;;;15.10;74.90;;;;;;5075378;28;20056;-61
2021/05/12 11:19:38;;;;;;;18.50;3.00;;;15.10;75.00;;;;;;5078915;28;20048;-62
2021/05/12 11:25:19;;;;;;;17.38;2.80;;;15.20;75.10;;;;;;5076835;28;20384;-61
2021/05/12 11:33:33;;;;;;;37.38;3.88;;;15.20;75.00;;;;;;5078123;28;20575;-61
2021/05/12 11:36:07;;;;;;;33.03;3.65;;;15.30;75.20;;;;;;5078543;28;20024;-62
2021/05/12 11:38:33;;;;;;;25.10;2.92;;;15.30;75.40;;;;;;5079860;28;20016;-62
2021/05/12 11:41:06;;;;;;;37.25;4.00;;;15.30;75.20;;;;;;5079898;28;20506;-61
2021/05/12 11:43:42;;;;;;;40.33;4.18;;;15.30;75.10;;;;;;5077827;28;20028;-61
2021/05/12 11:46:09;;;;;;;24.33;3.40;;;15.40;75.20;;;;;;5077383;28;20017;-60
2021/05/12 11:48:45;;;;;;;22.65;3.15;;;15.40;74.90;;;;;;5076540;28;20084;-61
2021/05/12 11:51:11;;;;;;;24.50;2.78;;;15.40;74.70;;;;;;5072585;28;20103;-60
2021/05/12 11:53:39;;;;;;;11.55;2.63;;;15.40;74.30;;;;;;5061515;28;21492;-59
2021/05/12 11:56:05;;;;;;;32.30;4.00;;;15.50;74.10;;;;;;5077378;28;20031;-61
2021/05/12 11:58:30;;;;;;;28.88;3.33;;;15.50;73.80;;;;;;5078544;28;20046;-62
2021/05/12 12:01:04;;;;;;;87.35;8.70;;;15.50;73.80;;;;;;5077992;28;20055;-61
2021/05/12 12:03:30;;;;;;;61.45;6.47;;;15.50;73.70;;;;;;5077253;28;20084;-61
2021/05/12 12:06:03;;;;;;;52.10;5.28;;;15.50;74.10;;;;;;5078706;28;20032;-60
2021/05/12 12:08:28;;;;;;;49.67;6.55;;;15.50;73.90;;;;;;5076091;28;20044;-60
2021/05/12 12:11:04;;;;;;;51.17;5.45;;;15.60;73.80;;;;;;5078646;28;20043;-61
2021/05/12 12:13:30;;;;;;;46.00;5.38;;;15.50;73.70;;;;;;5071009;28;20531;-61
2021/05/12 12:15:55;;;;;;;39.20;4.80;;;15.60;73.40;;;;;;5076890;28;20072;-61
2021/05/12 12:18:32;;;;;;;37.17;5.13;;;15.60;73.20;;;;;;5075175;28;20048;-61
2021/05/12 12:20:58;;;;;;;40.08;4.63;;;15.60;72.90;;;;;;5078569;28;20102;-60
2021/05/12 12:23:35;;;;;;;52.33;4.90;;;15.70;72.70;;;;;;5077288;28;20096;-61
2021/05/12 12:26:12;;;;;;;40.17;5.38;;;15.70;72.60;;;;;;5078986;28;20445;-61
2021/05/12 12:28:37;;;;;;;38.92;5.55;;;15.70;72.50;;;;;;5082414;28;20661;-62
2021/05/12 12:31:03;;;;;;;130.52;11.73;;;15.80;72.30;;;;;;5077020;28;20032;-61
2021/05/12 12:33:28;;;;;;;72.28;7.47;;;15.80;72.40;;;;;;5077260;28;20036;-62
2021/05/12 12:36:02;;;;;;;50.85;5.82;;;15.80;72.50;;;;;;5076506;28;20543;-61
2021/05/12 12:38:27;;;;;;;48.28;5.53;;;15.90;72.30;;;;;;5080097;28;20043;-61
2021/05/12 12:40:53;;;;;;;53.22;7.53;;;15.90;72.10;;;;;;5078499;28;20472;-63
2021/05/12 12:43:18;;;;;;;51.83;6.10;;;15.90;71.80;;;;;;5082701;28;20503;-61
2021/05/12 12:45:44;;;;;;;34.70;4.95;;;15.90;71.30;;;;;;5085427;28;20020;-62
2021/05/12 12:48:09;;;;;;;37.78;4.55;;;15.90;71.20;;;;;;5084216;28;20032;-62
2021/05/12 12:50:35;;;;;;;36.72;4.13;;;15.90;71.20;;;;;;5081504;28;20036;-62